createdAt,value
2023-01-05T00:00:10.460Z,17.42
2023-01-05T00:02:37.668Z,17.42
2023-01-05T00:05:04.149Z,17.42
2023-01-05T00:07:30.509Z,17.41
2023-01-05T00:09:57.011Z,17.41
2023-01-05T00:12:23.358Z,17.39
2023-01-05T00:14:49.943Z,17.39
2023-01-05T00:17:16.575Z,17.39
2023-01-05T00:19:43.178Z,17.39
2023-01-05T00:22:09.551Z,17.39
2023-01-05T00:24:35.927Z,17.38
2023-01-05T00:27:02.454Z,17.37
2023-01-05T00:29:28.793Z,17.36
2023-01-05T00:31:55.479Z,17.37
2023-01-05T00:34:22.513Z,17.36
2023-01-05T00:36:48.923Z,17.34
2023-01-05T00:39:15.486Z,17.35
2023-01-05T00:41:42.096Z,17.35
2023-01-05T00:44:08.471Z,17.31
2023-01-05T00:46:35.075Z,17.31
2023-01-05T00:49:01.865Z,17.32
2023-01-05T00:51:28.914Z,17.32
2023-01-05T00:53:56.173Z,17.30
2023-01-05T00:56:22.548Z,17.30
2023-01-05T00:58:49.212Z,17.30
2023-01-05T01:01:15.733Z,17.29
2023-01-05T01:03:42.805Z,17.28
2023-01-05T01:06:09.204Z,17.28
2023-01-05T01:08:35.809Z,17.27
2023-01-05T01:11:02.315Z,17.28
2023-01-05T01:13:29.236Z,17.28
2023-01-05T01:15:55.665Z,17.26
2023-01-05T01:18:22.332Z,17.27
2023-01-05T01:20:48.928Z,17.26
2023-01-05T01:23:15.356Z,17.26
2023-01-05T01:25:42.647Z,17.25
2023-01-05T01:28:09.140Z,17.24
2023-01-05T01:30:36.239Z,17.22
2023-01-05T01:33:02.999Z,17.22
2023-01-05T01:35:29.445Z,17.21
2023-01-05T01:37:56.030Z,17.22
2023-01-05T01:40:22.741Z,17.22
2023-01-05T01:42:49.182Z,17.21
2023-01-05T01:45:15.742Z,17.21
2023-01-05T01:47:42.122Z,17.19
2023-01-05T01:50:08.577Z,17.19
2023-01-05T01:52:35.122Z,17.19
2023-01-05T01:55:01.566Z,17.20
2023-01-05T01:57:27.885Z,17.18
2023-01-05T01:59:54.224Z,17.18
2023-01-05T02:02:20.818Z,17.17
2023-01-05T02:04:47.636Z,17.17
2023-01-05T02:07:14.692Z,17.16
2023-01-05T02:09:40.986Z,17.16
2023-01-05T02:12:07.543Z,17.16
2023-01-05T02:14:33.851Z,17.15
2023-01-05T02:17:00.272Z,17.15
2023-01-05T02:19:27.132Z,17.14
2023-01-05T02:21:53.510Z,17.14
2023-01-05T02:24:19.908Z,17.13
2023-01-05T02:26:46.339Z,17.13
2023-01-05T02:29:12.951Z,17.13
2023-01-05T02:31:39.428Z,17.13
2023-01-05T02:34:05.937Z,17.12
2023-01-05T02:36:32.343Z,17.12
2023-01-05T02:38:58.792Z,17.12
2023-01-05T02:41:25.105Z,17.11
2023-01-05T02:43:51.465Z,17.10
2023-01-05T02:46:17.943Z,17.10
2023-01-05T02:48:44.284Z,17.11
2023-01-05T02:51:10.832Z,17.10
2023-01-05T02:53:37.137Z,17.09
2023-01-05T02:56:03.538Z,17.08
2023-01-05T02:58:29.900Z,17.09
2023-01-05T03:00:56.522Z,17.09
2023-01-05T03:03:23.392Z,17.08
2023-01-05T03:05:50.010Z,17.07
2023-01-05T03:08:16.509Z,17.05
2023-01-05T03:10:42.888Z,17.06
2023-01-05T03:13:09.787Z,17.07
2023-01-05T03:15:37.679Z,17.06
2023-01-05T03:18:04.414Z,17.06
2023-01-05T03:20:30.785Z,17.06
2023-01-05T03:22:57.148Z,17.05
2023-01-05T03:25:23.846Z,17.04
2023-01-05T03:27:50.282Z,17.04
2023-01-05T03:30:16.629Z,17.03
2023-01-05T03:32:43.040Z,17.03
2023-01-05T03:35:09.769Z,17.03
2023-01-05T03:37:36.296Z,17.02
2023-01-05T03:40:02.948Z,17.02
2023-01-05T03:42:29.361Z,17.03
2023-01-05T03:44:56.192Z,17.02
2023-01-05T03:47:23.395Z,17.02
2023-01-05T03:49:49.741Z,17.02
2023-01-05T03:52:16.231Z,17.00
2023-01-05T03:54:43.212Z,17.00
2023-01-05T03:57:09.515Z,16.99
2023-01-05T03:59:36.514Z,17.00
2023-01-05T04:02:03.017Z,17.00
2023-01-05T04:04:29.435Z,16.99
2023-01-05T04:06:55.837Z,16.99
2023-01-05T04:09:22.452Z,16.97
2023-01-05T04:11:48.840Z,16.96
2023-01-05T04:14:15.195Z,16.97
2023-01-05T04:16:41.688Z,16.96
2023-01-05T04:19:08.258Z,16.96
2023-01-05T04:21:35.504Z,16.95
2023-01-05T04:24:01.860Z,16.95
2023-01-05T04:26:28.558Z,16.96
2023-01-05T04:28:55.032Z,16.95
2023-01-05T04:31:22.279Z,16.95
2023-01-05T04:33:48.844Z,16.94
2023-01-05T04:36:15.248Z,16.94
2023-01-05T04:38:41.699Z,16.92
2023-01-05T04:41:08.298Z,16.93
2023-01-05T04:43:34.779Z,16.92
2023-01-05T04:46:01.386Z,16.91
2023-01-05T04:48:28.037Z,16.91
2023-01-05T04:50:54.557Z,16.91
2023-01-05T04:53:21.200Z,16.91
2023-01-05T04:55:47.654Z,16.90
2023-01-05T04:58:14.487Z,16.91
2023-01-05T05:00:40.787Z,16.90
2023-01-05T05:03:07.920Z,16.90
2023-01-05T05:05:34.976Z,16.89
2023-01-05T05:08:01.713Z,16.87
2023-01-05T05:10:28.368Z,16.87
2023-01-05T05:12:54.765Z,16.89
2023-01-05T05:15:21.256Z,16.88
2023-01-05T05:17:47.582Z,16.87
2023-01-05T05:20:14.108Z,16.87
2023-01-05T05:22:40.561Z,16.87
2023-01-05T05:25:07.099Z,16.85
2023-01-05T05:27:33.823Z,16.86
2023-01-05T05:30:00.291Z,16.84
2023-01-05T05:32:27.086Z,16.85
2023-01-05T05:34:53.587Z,16.85
2023-01-05T05:37:20.088Z,16.84
2023-01-05T05:39:46.536Z,16.83
2023-01-05T05:42:13.480Z,16.83
2023-01-05T05:44:40.186Z,16.83
2023-01-05T05:47:06.854Z,16.83
2023-01-05T05:49:33.811Z,16.82
2023-01-05T05:52:00.316Z,16.83
2023-01-05T05:54:26.610Z,16.83
2023-01-05T05:56:53.715Z,16.82
2023-01-05T05:59:20.118Z,16.82
2023-01-05T06:01:46.761Z,16.81
2023-01-05T06:04:13.207Z,16.82
2023-01-05T06:06:39.787Z,16.81
2023-01-05T06:09:06.391Z,16.82
2023-01-05T06:11:33.650Z,16.81
2023-01-05T06:14:00.624Z,16.79
2023-01-05T06:16:27.355Z,16.80
2023-01-05T06:18:53.903Z,16.78
2023-01-05T06:21:20.464Z,16.76
2023-01-05T06:23:47.546Z,16.74
2023-01-05T06:26:13.931Z,16.74
2023-01-05T06:28:40.416Z,16.75
2023-01-05T06:31:07.384Z,16.75
2023-01-05T06:33:33.798Z,16.75
2023-01-05T06:36:00.301Z,16.75
2023-01-05T06:38:26.732Z,16.75
2023-01-05T06:40:53.676Z,16.75
2023-01-05T06:43:20.116Z,16.74
2023-01-05T06:45:46.830Z,16.74
2023-01-05T06:48:13.288Z,16.74
2023-01-05T06:50:39.592Z,16.74
2023-01-05T06:53:05.927Z,16.74
2023-01-05T06:55:32.618Z,16.74
2023-01-05T06:58:01.247Z,16.74
2023-01-05T07:00:28.248Z,16.73
2023-01-05T07:02:54.938Z,16.72
2023-01-05T07:05:21.838Z,16.73
2023-01-05T07:07:48.195Z,16.73
2023-01-05T07:10:14.786Z,16.70
2023-01-05T07:12:41.475Z,16.72
2023-01-05T07:15:08.144Z,16.71
2023-01-05T07:17:35.602Z,16.72
2023-01-05T07:20:02.043Z,16.72
2023-01-05T07:22:28.381Z,16.71
2023-01-05T07:24:55.516Z,16.71
2023-01-05T07:27:21.875Z,16.71
2023-01-05T07:29:48.862Z,16.70
2023-01-05T07:32:15.268Z,16.69
2023-01-05T07:34:41.805Z,16.70
2023-01-05T07:37:08.437Z,16.69
2023-01-05T07:39:35.068Z,16.69
2023-01-05T07:42:01.679Z,16.69
2023-01-05T07:44:28.217Z,16.69
2023-01-05T07:46:55.302Z,16.70
2023-01-05T07:49:21.843Z,16.70
2023-01-05T07:51:48.290Z,16.68
2023-01-05T07:54:15.308Z,16.69
2023-01-05T07:56:41.680Z,16.69
2023-01-05T07:59:08.282Z,16.69
2023-01-05T08:01:34.747Z,16.71
2023-01-05T08:04:01.393Z,16.70
2023-01-05T08:06:28.139Z,16.70
2023-01-05T08:08:55.099Z,16.72
2023-01-05T08:11:21.431Z,16.70
2023-01-05T08:13:47.770Z,16.70
2023-01-05T08:16:14.585Z,16.71
2023-01-05T08:18:40.973Z,16.71
2023-01-05T08:21:07.251Z,16.70
2023-01-05T08:23:33.971Z,16.68
2023-01-05T08:26:00.266Z,16.68
2023-01-05T08:28:33.229Z,16.69
2023-01-05T08:31:02.346Z,16.67
2023-01-05T08:33:29.015Z,16.66
2023-01-05T08:35:55.416Z,16.65
2023-01-05T08:38:21.885Z,16.67
2023-01-05T08:40:48.263Z,16.66
2023-01-05T08:43:14.858Z,16.66
2023-01-05T08:45:41.568Z,16.65
2023-01-05T08:48:08.233Z,16.64
2023-01-05T08:50:34.529Z,16.62
2023-01-05T08:53:01.424Z,16.62
2023-01-05T08:55:27.762Z,16.62
2023-01-05T08:57:54.688Z,16.61
2023-01-05T09:00:21.618Z,16.60
2023-01-05T09:02:48.353Z,16.58
2023-01-05T09:05:15.131Z,16.59
2023-01-05T09:07:41.797Z,16.57
2023-01-05T09:10:08.459Z,16.57
2023-01-05T09:12:34.894Z,16.56
2023-01-05T09:15:01.381Z,16.56
2023-01-05T09:17:27.916Z,16.57
2023-01-05T09:19:54.973Z,16.55
2023-01-05T09:22:21.317Z,16.54
2023-01-05T09:24:48.027Z,16.54
2023-01-05T09:27:14.766Z,16.53
2023-01-05T09:29:41.090Z,16.52
2023-01-05T09:32:07.905Z,16.55
2023-01-05T09:34:34.663Z,16.55
2023-01-05T09:37:01.321Z,16.54
2023-01-05T09:39:28.137Z,16.53
2023-01-05T09:41:54.459Z,16.53
2023-01-05T09:44:21.026Z,16.52
2023-01-05T09:46:47.436Z,16.53
2023-01-05T09:49:14.285Z,16.54
2023-01-05T09:51:40.682Z,16.54
2023-01-05T09:54:07.313Z,16.52
2023-01-05T09:57:08.051Z,16.50
2023-01-05T09:59:20.265Z,16.51
2023-01-05T10:01:47.387Z,16.51
2023-01-05T10:04:14.592Z,16.53
2023-01-05T10:06:41.043Z,16.54
2023-01-05T10:09:08.124Z,16.53
2023-01-05T10:11:35.111Z,16.53
2023-01-05T10:14:01.935Z,16.51
2023-01-05T10:16:29.783Z,16.52
2023-01-05T10:18:56.973Z,16.52
2023-01-05T10:21:23.671Z,16.51
2023-01-05T10:23:50.219Z,16.51
2023-01-05T10:26:17.262Z,16.51
2023-01-05T10:28:44.299Z,16.51
2023-01-05T10:31:10.736Z,16.50
2023-01-05T10:33:40.565Z,16.51
2023-01-05T10:36:12.277Z,16.49
2023-01-05T10:38:39.703Z,16.49
2023-01-05T10:41:06.307Z,16.49
2023-01-05T10:43:33.336Z,16.51
2023-01-05T10:46:29.793Z,16.51
2023-01-05T10:48:47.016Z,16.50
2023-01-05T10:51:13.729Z,16.49
2023-01-05T10:53:40.141Z,16.51
2023-01-05T10:56:06.827Z,16.50
2023-01-05T10:58:33.970Z,16.50
2023-01-05T11:01:00.393Z,16.51
2023-01-05T11:03:55.578Z,16.49
2023-01-05T11:06:13.810Z,16.50
2023-01-05T11:08:40.463Z,16.49
2023-01-05T11:11:07.353Z,16.48
2023-01-05T11:13:34.227Z,16.48
2023-01-05T11:16:00.552Z,16.48
2023-01-05T11:18:28.001Z,16.47
2023-01-05T11:20:54.937Z,16.48
2023-01-05T11:23:21.319Z,16.49
2023-01-05T11:25:47.685Z,16.48
2023-01-05T11:28:14.438Z,16.47
2023-01-05T11:30:41.098Z,16.47
2023-01-05T11:33:12.616Z,16.48
2023-01-05T11:35:41.231Z,16.46
2023-01-05T11:38:07.636Z,16.47
2023-01-05T11:40:34.019Z,16.46
2023-01-05T11:43:00.599Z,16.46
2023-01-05T11:45:27.911Z,16.47
2023-01-05T11:47:54.397Z,16.45
2023-01-05T11:50:20.875Z,16.46
2023-01-05T11:52:47.408Z,16.45
2023-01-05T11:55:14.283Z,16.45
2023-01-05T11:57:41.151Z,16.45
2023-01-05T12:00:07.755Z,16.44
2023-01-05T12:02:34.163Z,16.44
2023-01-05T12:05:00.761Z,16.43
2023-01-05T12:07:27.259Z,16.44
2023-01-05T12:09:55.339Z,16.44
2023-01-05T12:12:22.200Z,16.44
2023-01-05T12:14:48.650Z,16.42
2023-01-05T12:17:15.514Z,16.41
2023-01-05T12:19:42.003Z,16.43
2023-01-05T12:22:08.337Z,16.41
2023-01-05T12:24:35.050Z,16.41
2023-01-05T12:27:01.684Z,16.41
2023-01-05T12:31:06.430Z,16.41
2023-01-05T12:35:01.379Z,16.42
2023-01-05T12:37:28.864Z,16.42
2023-01-05T12:39:55.399Z,16.41
2023-01-05T12:42:21.965Z,16.41
2023-01-05T12:44:48.494Z,16.40
2023-01-05T12:47:15.578Z,16.41
2023-01-05T12:49:42.026Z,16.40
2023-01-05T12:52:08.372Z,16.40
2023-01-05T12:54:35.334Z,16.39
2023-01-05T12:57:01.799Z,16.39
2023-01-05T12:59:28.166Z,16.40
2023-01-05T13:01:54.541Z,16.40
2023-01-05T13:04:21.143Z,16.39
2023-01-05T13:06:47.611Z,16.39
2023-01-05T13:09:14.270Z,16.39
2023-01-05T13:11:41.144Z,16.38
2023-01-05T13:14:07.523Z,16.39
2023-01-05T13:16:33.875Z,16.39
2023-01-05T13:19:00.310Z,16.38
2023-01-05T13:21:26.935Z,16.39
2023-01-05T13:23:53.454Z,16.39
2023-01-05T13:26:19.755Z,16.39
2023-01-05T13:28:46.071Z,16.38
2023-01-05T13:31:12.539Z,16.39
2023-01-05T13:33:39.232Z,16.37
2023-01-05T13:36:05.556Z,16.37
2023-01-05T13:38:31.852Z,16.38
2023-01-05T13:40:58.296Z,16.36
2023-01-05T13:43:24.984Z,16.36
2023-01-05T13:45:52.794Z,16.36
2023-01-05T13:48:25.576Z,16.35
2023-01-05T13:51:00.759Z,16.34
2023-01-05T13:53:27.835Z,16.35
2023-01-05T13:55:54.790Z,16.34
2023-01-05T13:58:21.211Z,16.34
2023-01-05T14:00:47.599Z,16.34
2023-01-05T14:03:14.381Z,16.34
2023-01-05T14:05:40.666Z,16.33
2023-01-05T14:08:07.378Z,16.34
2023-01-05T14:10:33.912Z,16.34
2023-01-05T14:13:00.500Z,16.34
2023-01-05T14:15:27.346Z,16.33
2023-01-05T14:17:53.683Z,16.32
2023-01-05T14:20:20.048Z,16.34
2023-01-05T14:22:46.594Z,16.34
2023-01-05T14:25:13.195Z,16.33
2023-01-05T14:27:40.033Z,16.34
2023-01-05T14:30:06.364Z,16.33
2023-01-05T14:32:33.121Z,16.33
2023-01-05T14:34:59.702Z,16.32
2023-01-05T14:37:26.127Z,16.32
2023-01-05T14:39:53.316Z,16.32
2023-01-05T14:42:20.252Z,16.32
2023-01-05T14:44:47.025Z,16.32
2023-01-05T14:47:13.925Z,16.32
2023-01-05T14:49:40.588Z,16.31
2023-01-05T14:52:06.874Z,16.33
2023-01-05T14:54:33.559Z,16.30
2023-01-05T14:57:00.698Z,16.31
2023-01-05T14:59:28.628Z,16.31
2023-01-05T15:01:54.942Z,16.30
2023-01-05T15:04:21.876Z,16.31
2023-01-05T15:06:48.217Z,16.29
2023-01-05T15:09:15.065Z,16.30
2023-01-05T15:11:41.379Z,16.29
2023-01-05T15:14:08.034Z,16.29
2023-01-05T15:16:34.370Z,16.28
2023-01-05T15:19:00.715Z,16.29
2023-01-05T15:21:27.419Z,16.29
2023-01-05T15:23:53.827Z,16.29
2023-01-05T15:26:20.592Z,16.28
2023-01-05T15:28:47.211Z,16.28
2023-01-05T15:31:13.624Z,16.28
2023-01-05T15:33:39.909Z,16.28
2023-01-05T15:36:06.638Z,16.28
2023-01-05T15:38:34.320Z,16.28
2023-01-05T15:41:03.245Z,16.27
2023-01-05T15:43:29.693Z,16.27
2023-01-05T15:45:56.154Z,16.27
2023-01-05T15:48:22.514Z,16.26
2023-01-05T15:50:49.510Z,16.26
2023-01-05T15:53:16.159Z,16.26
2023-01-05T15:55:42.553Z,16.26
2023-01-05T15:58:09.100Z,16.26
2023-01-05T16:00:35.424Z,16.26
2023-01-05T16:03:01.980Z,16.26
2023-01-05T16:05:28.730Z,16.25
2023-01-05T16:07:55.247Z,16.26
2023-01-05T16:10:21.868Z,16.24
2023-01-05T16:12:48.349Z,16.24
2023-01-05T16:15:14.989Z,16.23
2023-01-05T16:17:41.618Z,16.23
2023-01-05T16:20:08.068Z,16.24
2023-01-05T16:22:34.591Z,16.24
2023-01-05T16:25:01.065Z,16.24
2023-01-05T16:27:27.575Z,16.24
2023-01-05T16:29:54.008Z,16.23
2023-01-05T16:32:20.389Z,16.24
2023-01-05T16:34:47.394Z,16.23
2023-01-05T16:37:14.000Z,16.22
2023-01-05T16:39:40.347Z,16.22
2023-01-05T16:42:06.981Z,16.22
2023-01-05T16:44:33.376Z,16.22
2023-01-05T16:46:59.897Z,16.21
2023-01-05T16:49:26.453Z,16.22
2023-01-05T16:51:53.406Z,16.21
2023-01-05T16:54:22.117Z,16.21
2023-01-05T16:56:49.128Z,16.20
2023-01-05T16:59:15.392Z,16.19
2023-01-05T17:01:41.773Z,16.19
2023-01-05T17:04:08.111Z,16.19
2023-01-05T17:06:34.975Z,16.20
2023-01-05T17:09:01.521Z,16.19
2023-01-05T17:11:28.376Z,16.18
2023-01-05T17:13:54.853Z,16.18
2023-01-05T17:16:21.672Z,16.19
2023-01-05T17:18:48.299Z,16.19
2023-01-05T17:21:14.671Z,16.18
2023-01-05T17:23:41.762Z,16.19
2023-01-05T17:26:08.195Z,16.19
2023-01-05T17:28:35.126Z,16.19
2023-01-05T17:31:01.513Z,16.18
2023-01-05T17:33:28.330Z,16.17
2023-01-05T17:35:55.463Z,16.17
2023-01-05T17:38:21.849Z,16.17
2023-01-05T17:40:48.340Z,16.16
2023-01-05T17:43:14.828Z,16.16
2023-01-05T17:45:41.165Z,16.16
2023-01-05T17:48:08.146Z,16.17
2023-01-05T17:50:34.472Z,16.18
2023-01-05T17:53:00.991Z,16.16
2023-01-05T17:55:28.820Z,16.13
2023-01-05T17:57:55.411Z,16.04
2023-01-05T18:00:22.241Z,15.93
2023-01-05T18:02:49.042Z,15.89
2023-01-05T18:05:15.909Z,15.93
2023-01-05T18:07:42.564Z,16.01
2023-01-05T18:10:09.670Z,16.14
2023-01-05T18:12:36.081Z,16.26
2023-01-05T18:15:02.639Z,16.39
2023-01-05T18:17:29.464Z,16.51
2023-01-05T18:19:56.231Z,16.59
2023-01-05T18:22:23.488Z,16.64
2023-01-05T18:24:50.008Z,16.67
2023-01-05T18:27:16.542Z,16.74
2023-01-05T18:29:43.881Z,16.82
2023-01-05T18:32:10.284Z,16.91
2023-01-05T18:34:36.716Z,16.97
2023-01-05T18:37:06.359Z,17.03
2023-01-05T18:39:37.259Z,17.10
2023-01-05T18:42:04.279Z,17.16
2023-01-05T18:44:31.242Z,17.22
2023-01-05T18:46:57.797Z,17.25
2023-01-05T18:49:24.417Z,17.30
2023-01-05T18:51:50.849Z,17.37
2023-01-05T18:54:17.233Z,17.42
2023-01-05T18:56:43.593Z,17.46
2023-01-05T18:59:10.342Z,17.51
2023-01-05T19:01:36.989Z,17.58
2023-01-05T19:04:03.464Z,17.61
2023-01-05T19:06:29.877Z,17.64
2023-01-05T19:08:56.683Z,17.70
2023-01-05T19:11:23.363Z,17.72
2023-01-05T19:13:49.654Z,17.76
2023-01-05T19:16:16.265Z,17.81
2023-01-05T19:18:43.088Z,17.84
2023-01-05T19:21:09.425Z,17.90
2023-01-05T19:23:36.429Z,17.93
2023-01-05T19:26:03.444Z,17.97
2023-01-05T19:28:30.016Z,17.98
2023-01-05T19:30:56.533Z,18.01
2023-01-05T19:33:23.273Z,18.08
2023-01-05T19:35:49.671Z,18.10
2023-01-05T19:38:16.444Z,18.17
2023-01-05T19:40:43.121Z,18.19
2023-01-05T19:43:09.808Z,18.28
2023-01-05T19:45:36.860Z,18.29
2023-01-05T19:48:03.396Z,18.33
2023-01-05T19:50:30.267Z,18.37
2023-01-05T19:52:57.060Z,18.42
2023-01-05T19:55:23.898Z,18.45
2023-01-05T19:57:50.554Z,18.49
2023-01-05T20:00:17.225Z,18.55
2023-01-05T20:02:43.840Z,18.59
2023-01-05T20:05:10.207Z,18.72
2023-01-05T20:07:37.392Z,18.79
2023-01-05T20:10:04.549Z,18.79
2023-01-05T20:12:30.934Z,18.80
2023-01-05T20:14:58.128Z,18.84
2023-01-05T20:17:25.105Z,18.89
2023-01-05T20:19:51.832Z,18.94
2023-01-05T20:22:18.951Z,18.97
2023-01-05T20:24:45.578Z,19.02
2023-01-05T20:27:12.161Z,19.07
2023-01-05T20:29:38.538Z,19.09
2023-01-05T20:32:05.337Z,19.15
2023-01-05T20:34:31.697Z,19.14
2023-01-05T20:36:58.791Z,19.15
2023-01-05T20:39:25.744Z,19.09
2023-01-05T20:41:52.464Z,19.08
2023-01-05T20:44:19.286Z,19.05
2023-01-05T20:46:46.009Z,19.03
2023-01-05T20:49:13.068Z,19.00
2023-01-05T20:51:39.954Z,18.97
2023-01-05T20:54:06.861Z,18.92
2023-01-05T20:56:33.411Z,18.87
2023-01-05T20:59:00.080Z,18.81
2023-01-05T21:01:27.020Z,18.77
2023-01-05T21:03:53.350Z,18.73
2023-01-05T21:06:20.265Z,18.70
2023-01-05T21:08:47.283Z,18.69
2023-01-05T21:11:14.343Z,18.66
2023-01-05T21:13:41.894Z,18.64
2023-01-05T21:16:08.598Z,18.61
2023-01-05T21:18:35.947Z,18.60
2023-01-05T21:21:02.499Z,18.57
2023-01-05T21:23:29.426Z,18.53
2023-01-05T21:26:07.083Z,18.53
2023-01-05T21:28:34.208Z,18.50
2023-01-05T21:31:00.599Z,18.48
2023-01-05T21:33:27.278Z,18.47
2023-01-05T21:35:53.658Z,18.44
2023-01-05T21:38:21.007Z,18.42
2023-01-05T21:40:51.743Z,18.40
2023-01-05T21:43:18.558Z,18.39
2023-01-05T21:45:45.130Z,18.37
2023-01-05T21:48:11.668Z,18.37
2023-01-05T21:50:38.982Z,18.34
2023-01-05T21:53:05.362Z,18.34
2023-01-05T21:55:32.068Z,18.32
2023-01-05T21:57:58.462Z,18.30
2023-01-05T22:00:24.959Z,18.30
2023-01-05T22:02:52.331Z,18.29
2023-01-05T22:05:18.860Z,18.28
2023-01-05T22:07:45.928Z,18.24
2023-01-05T22:10:13.154Z,18.23
2023-01-05T22:12:40.099Z,18.21
2023-01-05T22:15:06.547Z,18.19
2023-01-05T22:17:32.950Z,18.17
2023-01-05T22:19:59.501Z,18.14
2023-01-05T22:22:26.002Z,18.12
2023-01-05T22:24:52.522Z,18.11
2023-01-05T22:27:19.503Z,18.10
2023-01-05T22:29:45.984Z,18.08
2023-01-05T22:32:12.424Z,18.05
2023-01-05T22:34:39.476Z,18.02
2023-01-05T22:37:06.119Z,18.02
2023-01-05T22:39:32.610Z,17.99
2023-01-05T22:41:59.753Z,17.97
2023-01-05T22:44:26.923Z,17.95
2023-01-05T22:46:53.768Z,17.93
2023-01-05T22:49:20.838Z,17.90
2023-01-05T22:51:48.039Z,17.89
2023-01-05T22:54:14.872Z,17.86
2023-01-05T22:56:41.362Z,17.85
2023-01-05T22:59:08.026Z,17.83
2023-01-05T23:01:34.625Z,17.81
2023-01-05T23:04:01.677Z,17.79
2023-01-05T23:06:28.064Z,17.78
2023-01-05T23:08:54.702Z,17.76
2023-01-05T23:11:21.119Z,17.75
2023-01-05T23:13:47.979Z,17.74
2023-01-05T23:16:14.371Z,17.71
2023-01-05T23:18:40.983Z,17.68
2023-01-05T23:21:07.563Z,17.68
2023-01-05T23:23:33.875Z,17.66
2023-01-05T23:26:00.337Z,17.64
2023-01-05T23:28:26.863Z,17.64
2023-01-05T23:30:53.462Z,17.61
2023-01-05T23:33:19.974Z,17.61
2023-01-05T23:35:46.339Z,17.58
2023-01-05T23:38:13.070Z,17.56
2023-01-05T23:40:39.479Z,17.56
2023-01-05T23:43:06.041Z,17.54
2023-01-05T23:45:32.674Z,17.55
2023-01-05T23:47:58.965Z,17.52
2023-01-05T23:50:25.494Z,17.51
2023-01-05T23:52:52.290Z,17.51
2023-01-05T23:55:18.700Z,17.49
2023-01-05T23:57:45.355Z,17.48
